Time;durP1;ratioP1;P1;durP2;ratioP2;P2;SDS_P1;SDS_P2;PMS_P1;PMS_P2;Temp;Humidity;BMP_temperature;BMP_pressure;BME280_temperature;BME280_humidity;BME280_pressure;Samples;Min_cycle;Max_cycle;Signal;HPM_P1;HPM_P2
2023/10/09 00:01:26;;;;;;;6.28;3.50;;;;;;;;;;5065414;28;20218;-68
2023/10/09 00:03:54;;;;;;;4.40;3.20;;;;;;;;;;5066036;28;20632;-68
2023/10/09 00:06:31;;;;;;;8.02;3.13;;;;;;;;;;5066002;28;20289;-68
2023/10/09 00:08:58;;;;;;;3.90;2.90;;;;;;;;;;5066301;28;20276;-68
2023/10/09 00:11:29;;;;;;;5.10;2.70;;;;;;;;;;5065541;28;20294;-68
2023/10/09 00:13:58;;;;;;;5.18;2.78;;;;;;;;;;5066216;28;20231;-67
2023/10/09 00:16:34;;;;;;;5.60;2.72;;;;;;;;;;5066246;28;20927;-68
2023/10/09 00:19:13;;;;;;;2.70;2.50;;;;;;;;;;5065937;28;20199;-67
2023/10/09 00:21:42;;;;;;;6.45;2.83;;;;;;;;;;5056921;28;20630;-68
2023/10/09 00:24:13;;;;;;;2.88;2.60;;;;;;;;;;5061974;28;20707;-68
2023/10/09 00:26:45;;;;;;;6.75;2.53;;;;;;;;;;5065702;28;20965;-68
2023/10/09 00:29:15;;;;;;;4.63;2.50;;;;;;;;;;5065356;28;20694;-68
2023/10/09 00:31:49;;;;;;;4.70;2.42;;;;;;;;;;5065792;28;20288;-68
2023/10/09 00:34:19;;;;;;;4.75;2.60;;;;;;;;;;5065854;28;20250;-67
2023/10/09 00:36:51;;;;;;;3.83;2.80;;;;;;;;;;5065766;28;20207;-68
2023/10/09 00:39:31;;;;;;;5.65;2.40;;;;;;;;;;5065089;28;20617;-68
2023/10/09 00:42:00;;;;;;;3.22;2.55;;;;;;;;;;5054791;28;20214;-67
2023/10/09 00:44:37;;;;;;;2.25;2.05;;;;;;;;;;5065409;28;20756;-67
2023/10/09 00:47:10;;;;;;;2.45;2.25;;;;;;;;;;5065819;28;20221;-68
2023/10/09 00:49:41;;;;;;;6.65;2.40;;;;;;;;;;5062629;28;20224;-68
2023/10/09 00:52:17;;;;;;;2.65;2.47;;;;;;;;;;5065639;28;20257;-67
2023/10/09 00:54:51;;;;;;;2.17;1.98;;;;;;;;;;5065502;28;20234;-68
2023/10/09 00:57:24;;;;;;;3.90;2.40;;;;;;;;;;5065799;28;20290;-68
2023/10/09 00:59:59;;;;;;;5.32;2.15;;;;;;;;;;5065194;28;20211;-66
2023/10/09 01:02:35;;;;;;;3.30;2.20;;;;;;;;;;5063877;28;20206;-68
2023/10/09 01:05:10;;;;;;;5.88;2.10;;;;;;;;;;5065353;28;20225;-68
2023/10/09 01:07:39;;;;;;;2.23;1.90;;;;;;;;;;5067102;28;20256;-67
2023/10/09 01:10:35;;;;;;;2.63;2.40;;;;;;;;;;5068685;28;20231;-68
2023/10/09 01:12:56;;;;;;;4.43;2.28;;;;;;;;;;5068984;28;20210;-67
2023/10/09 01:15:43;;;;;;;3.22;2.15;;;;;;;;;;5065437;28;20206;-68
2023/10/09 01:18:12;;;;;;;2.72;2.15;;;;;;;;;;5069051;28;20218;-68
2023/10/09 01:20:45;;;;;;;4.03;2.35;;;;;;;;;;5068977;28;20301;-68
2023/10/09 01:23:13;;;;;;;2.15;2.05;;;;;;;;;;5068789;28;20243;-68
2023/10/09 01:25:46;;;;;;;2.28;2.17;;;;;;;;;;5068187;28;20210;-66
2023/10/09 01:28:15;;;;;;;3.97;2.00;;;;;;;;;;5068869;28;20203;-66
2023/10/09 01:30:43;;;;;;;3.30;2.35;;;;;;;;;;5068559;28;20219;-67
2023/10/09 01:33:21;;;;;;;2.10;2.00;;;;;;;;;;5067870;28;20280;-67
2023/10/09 01:35:50;;;;;;;2.13;2.03;;;;;;;;;;5067998;28;20199;-67
2023/10/09 01:38:30;;;;;;;4.20;1.80;;;;;;;;;;5068733;28;20252;-66
2023/10/09 01:41:03;;;;;;;2.65;1.92;;;;;;;;;;5068102;28;20201;-67
2023/10/09 01:43:34;;;;;;;2.45;2.35;;;;;;;;;;5064997;28;20227;-67
2023/10/09 01:46:03;;;;;;;5.07;2.45;;;;;;;;;;5068814;28;20243;-66
2023/10/09 01:48:35;;;;;;;4.23;2.00;;;;;;;;;;5067568;28;20238;-67
2023/10/09 01:51:04;;;;;;;3.87;2.17;;;;;;;;;;5067771;28;20230;-67
2023/10/09 01:53:33;;;;;;;3.33;2.05;;;;;;;;;;5068198;28;20249;-67
2023/10/09 01:56:10;;;;;;;6.35;2.35;;;;;;;;;;5067436;28;20229;-67
2023/10/09 01:58:40;;;;;;;2.38;2.28;;;;;;;;;;5068415;28;20205;-66
2023/10/09 02:01:07;;;;;;;7.03;2.67;;;;;;;;;;5067727;28;20261;-67
2023/10/09 02:03:41;;;;;;;4.23;2.70;;;;;;;;;;5068078;28;20221;-67
2023/10/09 02:06:24;;;;;;;2.22;2.05;;;;;;;;;;5066976;28;20238;-67
2023/10/09 02:08:53;;;;;;;4.18;2.50;;;;;;;;;;5056647;28;20203;-67
2023/10/09 02:11:24;;;;;;;2.58;2.47;;;;;;;;;;5067672;28;20222;-66
2023/10/09 02:13:57;;;;;;;2.60;2.28;;;;;;;;;;5067871;28;20203;-67
2023/10/09 02:16:29;;;;;;;3.00;2.65;;;;;;;;;;5067279;28;20207;-67
2023/10/09 02:18:58;;;;;;;1.87;1.77;;;;;;;;;;5067125;28;20213;-66
2023/10/09 02:21:39;;;;;;;2.40;2.30;;;;;;;;;;5067863;28;20328;-67
2023/10/09 02:24:26;;;;;;;2.10;1.98;;;;;;;;;;5067361;28;20202;-66
2023/10/09 02:27:07;;;;;;;5.00;2.60;;;;;;;;;;5067242;28;20229;-67
2023/10/09 02:29:38;;;;;;;3.92;2.20;;;;;;;;;;5067574;28;20567;-66
2023/10/09 02:32:17;;;;;;;2.40;2.28;;;;;;;;;;5067304;28;20648;-66
2023/10/09 02:34:46;;;;;;;2.30;2.10;;;;;;;;;;5067009;28;20334;-67
2023/10/09 02:37:14;;;;;;;2.60;2.38;;;;;;;;;;5065059;28;20238;-67
2023/10/09 02:39:47;;;;;;;4.38;2.40;;;;;;;;;;5066970;28;20195;-69
2023/10/09 02:42:23;;;;;;;2.37;2.17;;;;;;;;;;5066764;28;20298;-67
2023/10/09 02:44:51;;;;;;;3.20;2.23;;;;;;;;;;5066605;28;20238;-67
2023/10/09 02:47:20;;;;;;;6.35;2.38;;;;;;;;;;5067425;28;20207;-66
2023/10/09 02:49:51;;;;;;;7.60;2.10;;;;;;;;;;5067155;28;20233;-67
2023/10/09 02:52:24;;;;;;;2.47;1.95;;;;;;;;;;5067451;28;20203;-67
2023/10/09 02:54:59;;;;;;;5.25;1.88;;;;;;;;;;5066134;28;21378;-67
2023/10/09 02:57:28;;;;;;;2.97;2.35;;;;;;;;;;5064235;28;20567;-67
2023/10/09 02:59:55;;;;;;;2.10;2.00;;;;;;;;;;5066825;28;20253;-67
2023/10/09 03:02:24;;;;;;;2.45;2.30;;;;;;;;;;5067044;28;20207;-67
2023/10/09 03:04:54;;;;;;;4.43;2.55;;;;;;;;;;5064239;28;20570;-67
2023/10/09 03:07:23;;;;;;;2.07;1.97;;;;;;;;;;5066707;28;20211;-67
2023/10/09 03:09:50;;;;;;;4.75;2.60;;;;;;;;;;5066614;28;20341;-66
2023/10/09 03:12:26;;;;;;;4.65;2.50;;;;;;;;;;5067177;28;20611;-67
2023/10/09 03:14:54;;;;;;;3.45;2.40;;;;;;;;;;5066890;28;20254;-67
2023/10/09 03:17:22;;;;;;;2.50;2.40;;;;;;;;;;5066515;28;20234;-67
2023/10/09 03:19:49;;;;;;;2.38;2.20;;;;;;;;;;5066799;28;20579;-67
2023/10/09 03:22:16;;;;;;;6.63;2.85;;;;;;;;;;5066610;28;20237;-66
2023/10/09 03:24:44;;;;;;;5.50;2.45;;;;;;;;;;5066651;28;20203;-66
2023/10/09 03:27:13;;;;;;;2.55;2.35;;;;;;;;;;5066510;28;20203;-67
2023/10/09 03:29:48;;;;;;;4.22;2.35;;;;;;;;;;5066271;28;20324;-67
2023/10/09 03:32:15;;;;;;;3.78;2.28;;;;;;;;;;5065769;28;20306;-67
2023/10/09 03:34:43;;;;;;;4.63;2.30;;;;;;;;;;5066271;28;20203;-66
2023/10/09 03:37:21;;;;;;;2.65;1.90;;;;;;;;;;5064938;28;20293;-67
2023/10/09 03:39:51;;;;;;;2.70;2.50;;;;;;;;;;5066172;28;20211;-67
2023/10/09 03:42:20;;;;;;;3.83;2.50;;;;;;;;;;5066481;28;20776;-67
2023/10/09 03:44:53;;;;;;;2.70;2.50;;;;;;;;;;5065898;28;20223;-66
2023/10/09 03:47:22;;;;;;;8.73;2.92;;;;;;;;;;5066328;28;20209;-66
2023/10/09 03:49:51;;;;;;;3.63;2.73;;;;;;;;;;5066245;28;20215;-67
2023/10/09 03:52:19;;;;;;;5.32;2.83;;;;;;;;;;5066598;28;20206;-66
2023/10/09 03:54:46;;;;;;;6.07;3.95;;;;;;;;;;5065953;28;20203;-66
2023/10/09 03:57:18;;;;;;;5.27;3.57;;;;;;;;;;5065619;28;20237;-67
2023/10/09 03:59:47;;;;;;;6.70;3.67;;;;;;;;;;5066580;28;20230;-68
2023/10/09 04:02:16;;;;;;;6.53;3.90;;;;;;;;;;5066108;28;20214;-67
2023/10/09 04:04:46;;;;;;;5.93;4.25;;;;;;;;;;5065593;28;20195;-67
2023/10/09 04:07:16;;;;;;;5.78;3.95;;;;;;;;;;5065634;28;20261;-67
2023/10/09 04:09:47;;;;;;;4.68;3.65;;;;;;;;;;5057842;28;20299;-67
2023/10/09 04:12:20;;;;;;;6.35;4.82;;;;;;;;;;5064907;28;20759;-67
2023/10/09 04:14:54;;;;;;;8.25;4.95;;;;;;;;;;5064545;28;20294;-67
2023/10/09 04:17:36;;;;;;;8.25;5.30;;;;;;;;;;5059515;28;20207;-69
2023/10/09 04:23:04;;;;;;;11.32;5.88;;;;;;;;;;5037470;28;20218;-67
2023/10/09 04:25:41;;;;;;;10.05;5.60;;;;;;;;;;5065422;28;20202;-67
2023/10/09 04:28:09;;;;;;;9.52;5.20;;;;;;;;;;5065214;28;20205;-67
2023/10/09 04:30:40;;;;;;;8.35;5.50;;;;;;;;;;5065218;28;20918;-67
2023/10/09 04:33:28;;;;;;;12.80;5.87;;;;;;;;;;5065793;28;20203;-67
2023/10/09 04:38:37;;;;;;;8.93;5.90;;;;;;;;;;5064663;28;20252;-66
2023/10/09 04:41:07;;;;;;;10.25;5.50;;;;;;;;;;5065772;28;20453;-67
2023/10/09 04:43:33;;;;;;;11.80;5.75;;;;;;;;;;5067932;28;20276;-67
2023/10/09 04:46:07;;;;;;;6.53;5.00;;;;;;;;;;5068754;28;20235;-66
2023/10/09 04:48:38;;;;;;;6.32;5.20;;;;;;;;;;5068330;28;20206;-66
2023/10/09 04:51:20;;;;;;;6.65;5.22;;;;;;;;;;5068921;28;20712;-66
2023/10/09 04:53:54;;;;;;;8.85;5.20;;;;;;;;;;5069168;28;20195;-67
2023/10/09 04:56:24;;;;;;;7.55;4.85;;;;;;;;;;5069085;28;20210;-66
2023/10/09 04:59:03;;;;;;;6.22;4.72;;;;;;;;;;5053505;28;20288;-67
2023/10/09 05:01:37;;;;;;;5.07;4.55;;;;;;;;;;5068720;28;20699;-67
2023/10/09 05:04:26;;;;;;;9.20;5.32;;;;;;;;;;5069481;28;20206;-67
2023/10/09 05:06:56;;;;;;;6.15;4.88;;;;;;;;;;5064730;28;20204;-66
2023/10/09 05:09:23;;;;;;;4.95;4.45;;;;;;;;;;5057016;28;20238;-66
2023/10/09 05:12:09;;;;;;;10.65;5.53;;;;;;;;;;5068619;28;20321;-67
2023/10/09 05:14:38;;;;;;;11.63;5.80;;;;;;;;;;5064316;28;20195;-66
2023/10/09 05:17:15;;;;;;;6.10;4.93;;;;;;;;;;5069211;28;20585;-67
2023/10/09 05:19:54;;;;;;;6.22;5.28;;;;;;;;;;5066800;28;20199;-67
2023/10/09 05:25:15;;;;;;;7.57;5.00;;;;;;;;;;5067542;28;20229;-66
2023/10/09 05:27:50;;;;;;;9.15;5.25;;;;;;;;;;5068930;28;20206;-67
2023/10/09 05:30:25;;;;;;;95.25;17.67;;;;;;;;;;5062672;28;20198;-62
2023/10/09 05:32:55;;;;;;;11.97;5.40;;;;;;;;;;5068860;28;20225;-63
2023/10/09 05:35:39;;;;;;;16.95;5.95;;;;;;;;;;5061511;28;20590;-63
2023/10/09 05:38:14;;;;;;;15.70;5.50;;;;;;;;;;5053507;28;20207;-63
2023/10/09 05:40:43;;;;;;;12.73;5.28;;;;;;;;;;5066518;28;20623;-63
2023/10/09 05:44:21;;;;;;;12.80;5.20;;;;;;;;;;5068442;28;20231;-64
2023/10/09 05:46:09;;;;;;;9.82;4.90;;;;;;;;;;5067517;28;20661;-63
2023/10/09 05:54:23;;;;;;;8.68;3.80;;;;;;;;;;5066993;28;20203;-63
2023/10/09 06:05:51;;;;;;;10.32;4.65;;;;;;;;;;5067007;28;20249;-67
2023/10/09 06:08:24;;;;;;;10.80;4.68;;;;;;;;;;5067549;28;20211;-62
2023/10/09 06:11:05;;;;;;;8.43;4.30;;;;;;;;;;5067540;28;20272;-63
2023/10/09 06:13:39;;;;;;;14.52;5.45;;;;;;;;;;5067584;28;20203;-63
2023/10/09 06:19:07;;;;;;;12.07;4.88;;;;;;;;;;5063842;28;20230;-63
2023/10/09 06:21:39;;;;;;;12.25;5.15;;;;;;;;;;5067247;28;20202;-63
2023/10/09 06:24:15;;;;;;;15.80;5.07;;;;;;;;;;5067094;28;20199;-65
2023/10/09 06:26:52;;;;;;;7.65;3.97;;;;;;;;;;5066829;28;20210;-65
2023/10/09 06:29:35;;;;;;;8.50;4.43;;;;;;;;;;5067548;28;20215;-65
2023/10/09 06:34:45;;;;;;;14.10;4.95;;;;;;;;;;5064269;28;20206;-64
2023/10/09 06:37:34;;;;;;;6.30;4.88;;;;;;;;;;5066681;28;20207;-64
2023/10/09 06:41:23;;;;;;;12.00;4.75;;;;;;;;;;5047311;28;20285;-64
2023/10/09 06:43:15;;;;;;;14.40;5.43;;;;;;;;;;5077950;28;20316;-64
2023/10/09 06:45:45;;;;;;;11.30;4.15;;;;;;;;;;5070750;28;20395;-65
2023/10/09 06:51:03;;;;;;;7.78;4.30;;;;;;;;;;5066792;28;20725;-64
2023/10/09 06:53:58;;;;;;;6.03;3.85;;;;;;;;;;5067178;28;20210;-64
2023/10/09 06:57:12;;;;;;;6.68;4.10;;;;;;;;;;5087278;28;20220;-64
2023/10/09 06:59:21;;;;;;;10.15;4.82;;;;;;;;;;5087220;28;20233;-64
2023/10/09 07:02:18;;;;;;;8.52;4.13;;;;;;;;;;5087355;28;20198;-64
2023/10/09 07:04:46;;;;;;;7.47;4.32;;;;;;;;;;5082577;28;20293;-64
2023/10/09 07:07:16;;;;;;;8.07;4.13;;;;;;;;;;5066844;28;20210;-64
2023/10/09 07:09:42;;;;;;;7.10;4.60;;;;;;;;;;5066595;28;20209;-64
2023/10/09 07:12:14;;;;;;;12.93;4.55;;;;;;;;;;5066312;28;20252;-64
2023/10/09 07:20:35;;;;;;;9.48;4.20;;;;;;;;;;5066493;28;20229;-64
2023/10/09 07:23:13;;;;;;;7.13;4.38;;;;;;;;;;5066315;28;20517;-65
2023/10/09 07:25:54;;;;;;;10.95;4.60;;;;;;;;;;5066411;28;20229;-65
2023/10/09 07:28:43;;;;;;;11.93;4.35;;;;;;;;;;5066391;28;20538;-64
2023/10/09 07:31:24;;;;;;;11.43;4.57;;;;;;;;;;5071417;28;20320;-64
2023/10/09 07:33:57;;;;;;;8.57;4.32;;;;;;;;;;5066607;28;20264;-63
2023/10/09 07:36:37;;;;;;;12.07;4.25;;;;;;;;;;5066187;28;20213;-66
2023/10/09 07:39:13;;;;;;;12.63;4.40;;;;;;;;;;5065927;28;20203;-63
2023/10/09 07:41:44;;;;;;;7.68;3.75;;;;;;;;;;5065724;28;20234;-64
2023/10/09 07:44:36;;;;;;;9.88;4.53;;;;;;;;;;5065920;28;20227;-63
2023/10/09 07:47:19;;;;;;;10.07;4.40;;;;;;;;;;5066110;28;20211;-64
2023/10/09 07:49:54;;;;;;;7.85;4.35;;;;;;;;;;5058437;28;20306;-64
2023/10/09 07:52:21;;;;;;;7.38;4.05;;;;;;;;;;5065570;28;20356;-64
2023/10/09 07:55:01;;;;;;;9.52;4.93;;;;;;;;;;5064661;28;20583;-64
2023/10/09 07:57:29;;;;;;;9.07;4.13;;;;;;;;;;5064905;28;20265;-64
2023/10/09 08:00:11;;;;;;;9.10;4.07;;;;;;;;;;5065590;28;20199;-64
2023/10/09 08:02:38;;;;;;;7.65;4.13;;;;;;;;;;5046307;28;20200;-64
2023/10/09 08:05:07;;;;;;;10.73;3.97;;;;;;;;;;5048915;28;20211;-64
2023/10/09 08:07:36;;;;;;;8.13;4.53;;;;;;;;;;5062946;28;20352;-64
2023/10/09 08:13:49;;;;;;;8.48;3.83;;;;;;;;;;5065006;28;20226;-63
2023/10/09 08:15:51;;;;;;;8.30;3.88;;;;;;;;;;5064914;28;20199;-63
2023/10/09 08:18:27;;;;;;;12.05;4.38;;;;;;;;;;5068116;28;20211;-64
2023/10/09 08:23:48;;;;;;;7.28;4.25;;;;;;;;;;5069485;28;20202;-62
2023/10/09 08:26:16;;;;;;;8.10;4.03;;;;;;;;;;5069639;28;20652;-64
2023/10/09 08:28:43;;;;;;;8.73;3.58;;;;;;;;;;5069700;28;20225;-63
2023/10/09 08:31:19;;;;;;;10.90;4.03;;;;;;;;;;5069365;28;20223;-66
2023/10/09 08:33:56;;;;;;;6.10;4.13;;;;;;;;;;5069676;28;20749;-66
2023/10/09 08:36:22;;;;;;;11.15;4.07;;;;;;;;;;5069219;28;20696;-64
2023/10/09 08:38:49;;;;;;;7.00;3.72;;;;;;;;;;5069199;28;20203;-68
2023/10/09 08:41:16;;;;;;;8.65;4.07;;;;;;;;;;5069536;28;20238;-69
2023/10/09 08:43:50;;;;;;;18.95;4.00;;;;;;;;;;5069424;28;20700;-67
2023/10/09 08:46:20;;;;;;;8.70;4.70;;;;;;;;;;5068982;28;20238;-65
2023/10/09 08:48:47;;;;;;;11.07;4.07;;;;;;;;;;5069239;28;20280;-70
2023/10/09 08:51:15;;;;;;;14.38;4.43;;;;;;;;;;5069048;28;20234;-69
2023/10/09 08:53:45;;;;;;;9.70;4.13;;;;;;;;;;5054099;28;20230;-65
2023/10/09 08:56:14;;;;;;;6.68;4.57;;;;;;;;;;5069172;28;20301;-67
2023/10/09 08:58:41;;;;;;;14.40;4.60;;;;;;;;;;5069117;28;20577;-66
2023/10/09 09:01:11;;;;;;;8.82;4.28;;;;;;;;;;5068933;28;20573;-66
2023/10/09 09:03:44;;;;;;;11.43;4.38;;;;;;;;;;5068870;28;20330;-67
2023/10/09 09:06:11;;;;;;;14.10;4.60;;;;;;;;;;5069102;28;20294;-69
2023/10/09 09:08:38;;;;;;;5.65;3.80;;;;;;;;;;5068607;28;20526;-67
2023/10/09 09:11:12;;;;;;;8.75;4.15;;;;;;;;;;5068268;28;20242;-67
2023/10/09 09:13:41;;;;;;;7.72;3.97;;;;;;;;;;5049090;28;20235;-67
2023/10/09 09:16:15;;;;;;;9.32;3.95;;;;;;;;;;5064163;28;20748;-67
2023/10/09 09:19:00;;;;;;;7.30;3.75;;;;;;;;;;5076090;28;20238;-67
2023/10/09 09:21:27;;;;;;;13.70;4.18;;;;;;;;;;5068685;28;20656;-67
2023/10/09 09:23:56;;;;;;;10.82;3.97;;;;;;;;;;5068663;28;20211;-67
2023/10/09 09:26:37;;;;;;;11.57;4.43;;;;;;;;;;5066919;28;20260;-67
2023/10/09 09:29:05;;;;;;;9.43;4.22;;;;;;;;;;5052473;28;20203;-67
2023/10/09 09:31:37;;;;;;;4.90;3.88;;;;;;;;;;5068536;28;20684;-67
2023/10/09 09:34:13;;;;;;;17.75;4.10;;;;;;;;;;5068581;28;20301;-67
2023/10/09 09:36:53;;;;;;;8.65;4.05;;;;;;;;;;5048688;28;20293;-67
2023/10/09 09:39:26;;;;;;;8.65;4.28;;;;;;;;;;5059235;28;20239;-63
2023/10/09 09:41:56;;;;;;;14.05;4.13;;;;;;;;;;5068548;28;20769;-65
2023/10/09 09:44:30;;;;;;;9.45;4.32;;;;;;;;;;5067906;28;20255;-65
2023/10/09 09:46:59;;;;;;;7.43;3.92;;;;;;;;;;5068273;28;20234;-66
2023/10/09 09:49:31;;;;;;;9.15;3.78;;;;;;;;;;5068006;28;20211;-63
2023/10/09 09:51:58;;;;;;;7.50;3.80;;;;;;;;;;5067930;28;20226;-64
2023/10/09 09:54:26;;;;;;;7.97;3.70;;;;;;;;;;5072431;28;20198;-63
2023/10/09 09:56:54;;;;;;;13.77;4.25;;;;;;;;;;5088362;28;20263;-64
2023/10/09 09:59:27;;;;;;;5.72;3.92;;;;;;;;;;5077157;28;20210;-64
2023/10/09 10:01:57;;;;;;;9.90;4.13;;;;;;;;;;5068225;28;20294;-63
2023/10/09 10:04:26;;;;;;;7.45;3.88;;;;;;;;;;5067731;28;20210;-63
2023/10/09 10:07:00;;;;;;;8.23;3.53;;;;;;;;;;5068072;28;20689;-63
2023/10/09 10:09:38;;;;;;;10.23;4.38;;;;;;;;;;5067758;28;20229;-63
2023/10/09 10:12:09;;;;;;;9.07;4.07;;;;;;;;;;5067915;28;20322;-62
2023/10/09 10:14:52;;;;;;;9.15;3.78;;;;;;;;;;5067464;28;20209;-65
2023/10/09 10:17:21;;;;;;;15.20;5.75;;;;;;;;;;5067660;28;20215;-64
2023/10/09 10:20:01;;;;;;;13.10;3.90;;;;;;;;;;5067724;28;20218;-62
2023/10/09 10:22:29;;;;;;;7.35;4.15;;;;;;;;;;5067288;28;20206;-62
2023/10/09 10:24:57;;;;;;;6.80;3.20;;;;;;;;;;5066576;28;20230;-67
2023/10/09 10:27:27;;;;;;;6.93;3.75;;;;;;;;;;5067724;28;20888;-67
2023/10/09 10:30:13;;;;;;;8.60;3.60;;;;;;;;;;5067395;28;20221;-66
2023/10/09 10:32:57;;;;;;;10.40;3.40;;;;;;;;;;5067137;28;20226;-66
2023/10/09 10:35:36;;;;;;;17.13;3.80;;;;;;;;;;5067414;28;20265;-66
2023/10/09 10:38:11;;;;;;;7.28;3.10;;;;;;;;;;5067496;28;20221;-68
2023/10/09 10:40:45;;;;;;;9.32;4.30;;;;;;;;;;5065209;28;20202;-66
2023/10/09 10:43:31;;;;;;;9.57;3.50;;;;;;;;;;5066858;28;20224;-67
2023/10/09 10:46:04;;;;;;;7.85;3.53;;;;;;;;;;5064383;28;20269;-68
2023/10/09 10:48:38;;;;;;;7.80;3.65;;;;;;;;;;5060962;28;20631;-66
2023/10/09 10:51:05;;;;;;;10.45;3.78;;;;;;;;;;5051564;28;20243;-67
2023/10/09 10:53:47;;;;;;;8.25;3.75;;;;;;;;;;5046667;28;20666;-67
2023/10/09 10:56:18;;;;;;;12.43;3.60;;;;;;;;;;5057462;28;20233;-66
2023/10/09 10:59:11;;;;;;;6.75;3.03;;;;;;;;;;5084622;28;20209;-66
2023/10/09 11:01:53;;;;;;;7.45;3.55;;;;;;;;;;5066032;28;20203;-66
2023/10/09 11:04:38;;;;;;;6.22;3.50;;;;;;;;;;5066544;28;20800;-66
2023/10/09 11:07:09;;;;;;;5.45;3.95;;;;;;;;;;5066289;28;20211;-66
2023/10/09 11:10:00;;;;;;;8.38;4.03;;;;;;;;;;5066118;28;20222;-66
2023/10/09 11:12:37;;;;;;;5.68;3.53;;;;;;;;;;5066316;28;20329;-66
2023/10/09 11:15:08;;;;;;;7.65;3.80;;;;;;;;;;5068763;28;20203;-66
2023/10/09 11:17:38;;;;;;;4.82;3.45;;;;;;;;;;5066130;28;20298;-66
2023/10/09 11:20:22;;;;;;;4.80;3.30;;;;;;;;;;5065627;28;20290;-66
2023/10/09 11:23:14;;;;;;;8.68;4.00;;;;;;;;;;5066020;28;20214;-66
2023/10/09 11:25:39;;;;;;;12.07;4.40;;;;;;;;;;5045967;28;20199;-67
2023/10/09 11:28:27;;;;;;;14.07;3.95;;;;;;;;;;5074595;28;20236;-66
2023/10/09 11:30:55;;;;;;;9.82;3.60;;;;;;;;;;5066379;28;20720;-66
2023/10/09 11:33:24;;;;;;;8.00;3.75;;;;;;;;;;5066118;28;20231;-66
2023/10/09 11:36:00;;;;;;;7.00;3.10;;;;;;;;;;5077800;28;20210;-66
2023/10/09 11:38:28;;;;;;;6.47;3.63;;;;;;;;;;5080787;28;20205;-66
2023/10/09 11:41:18;;;;;;;7.75;3.20;;;;;;;;;;5085804;28;20213;-64
2023/10/09 11:43:54;;;;;;;14.95;3.88;;;;;;;;;;5085701;28;20241;-67
2023/10/09 11:46:48;;;;;;;6.15;3.13;;;;;;;;;;5085198;28;20248;-67
2023/10/09 11:54:49;;;;;;;9.52;3.65;;;;;;;;;;5085831;28;20242;-67
2023/10/09 11:57:28;;;;;;;7.18;2.92;;;;;;;;;;5081543;28;20321;-67
2023/10/09 11:59:55;;;;;;;9.05;3.58;;;;;;;;;;5070500;28;20229;-67
2023/10/09 12:02:22;;;;;;;9.60;3.13;;;;;;;;;;5072282;28;20211;-67
2023/10/09 12:04:49;;;;;;;6.97;3.15;;;;;;;;;;5065117;28;20211;-67
2023/10/09 12:07:20;;;;;;;5.20;3.05;;;;;;;;;;5065298;28;20214;-67
2023/10/09 12:09:48;;;;;;;7.25;3.00;;;;;;;;;;5064402;28;20211;-67
2023/10/09 12:12:15;;;;;;;8.77;3.10;;;;;;;;;;5062283;28;20302;-67
2023/10/09 12:14:44;;;;;;;4.90;3.28;;;;;;;;;;5062227;28;20213;-67
2023/10/09 12:17:11;;;;;;;7.70;3.10;;;;;;;;;;5063741;28;20207;-67
2023/10/09 12:19:39;;;;;;;6.22;4.07;;;;;;;;;;5063972;28;20580;-67
2023/10/09 12:22:10;;;;;;;16.38;3.78;;;;;;;;;;5064216;28;20211;-67
2023/10/09 12:24:40;;;;;;;9.52;3.55;;;;;;;;;;5063987;28;20238;-67
2023/10/09 12:27:11;;;;;;;18.02;4.47;;;;;;;;;;5064377;28;20209;-63
2023/10/09 12:29:38;;;;;;;5.65;3.00;;;;;;;;;;5076293;28;20198;-63
2023/10/09 12:32:10;;;;;;;14.82;4.28;;;;;;;;;;5077397;28;20211;-63
2023/10/09 12:34:38;;;;;;;12.70;3.33;;;;;;;;;;5075924;28;20515;-63
2023/10/09 12:37:06;;;;;;;6.53;3.20;;;;;;;;;;5084386;28;20275;-63
2023/10/09 12:39:34;;;;;;;3.17;2.55;;;;;;;;;;5073803;28;20634;-60
2023/10/09 12:42:06;;;;;;;4.47;3.08;;;;;;;;;;5067494;28;20203;-61
2023/10/09 12:44:38;;;;;;;5.97;3.00;;;;;;;;;;5084499;28;20210;-61
2023/10/09 12:47:07;;;;;;;7.60;3.15;;;;;;;;;;5085178;28;20211;-61
2023/10/09 12:49:34;;;;;;;6.88;3.15;;;;;;;;;;5085074;28;20210;-65
2023/10/09 12:52:01;;;;;;;7.10;3.50;;;;;;;;;;5085308;28;20712;-68
2023/10/09 12:54:28;;;;;;;4.88;3.05;;;;;;;;;;5081287;28;20234;-63
2023/10/09 12:56:55;;;;;;;5.40;3.38;;;;;;;;;;5063429;28;20218;-64
2023/10/09 12:59:24;;;;;;;6.45;3.13;;;;;;;;;;5064113;28;20705;-63
2023/10/09 13:01:57;;;;;;;7.93;3.50;;;;;;;;;;5064163;28;20219;-62
2023/10/09 13:04:31;;;;;;;10.00;4.43;;;;;;;;;;5066622;28;20732;-63
2023/10/09 13:07:02;;;;;;;18.05;4.25;;;;;;;;;;5067901;28;20700;-64
2023/10/09 13:09:35;;;;;;;6.13;3.78;;;;;;;;;;5067340;28;20211;-63
2023/10/09 13:12:02;;;;;;;11.57;4.60;;;;;;;;;;5068056;28;20256;-63
2023/10/09 13:14:29;;;;;;;6.35;3.63;;;;;;;;;;5067703;28;20576;-62
2023/10/09 13:16:56;;;;;;;9.05;3.83;;;;;;;;;;5067727;28;20202;-66
2023/10/09 13:19:25;;;;;;;7.60;3.13;;;;;;;;;;5067370;28;20199;-61
2023/10/09 13:21:52;;;;;;;9.63;4.10;;;;;;;;;;5065343;28;20199;-62
2023/10/09 13:24:23;;;;;;;6.75;3.78;;;;;;;;;;5064614;28;20206;-61
2023/10/09 13:26:57;;;;;;;9.93;3.53;;;;;;;;;;5065943;28;20235;-62
2023/10/09 13:29:25;;;;;;;5.60;3.25;;;;;;;;;;5066589;28;20256;-62
2023/10/09 13:31:57;;;;;;;7.03;3.33;;;;;;;;;;5080183;28;20207;-62
2023/10/09 13:34:28;;;;;;;6.00;3.53;;;;;;;;;;5087557;28;20233;-61
2023/10/09 13:36:57;;;;;;;6.85;3.08;;;;;;;;;;5087741;28;20330;-62
2023/10/09 13:39:24;;;;;;;7.07;3.20;;;;;;;;;;5066497;28;20210;-62
2023/10/09 13:41:57;;;;;;;7.88;3.10;;;;;;;;;;5067126;28;20570;-63
2023/10/09 13:44:26;;;;;;;5.10;3.08;;;;;;;;;;5066664;28;20272;-62
2023/10/09 13:46:53;;;;;;;5.10;3.40;;;;;;;;;;5067007;28;20227;-63
2023/10/09 13:49:22;;;;;;;7.32;3.45;;;;;;;;;;5066780;28;20219;-63
2023/10/09 13:51:51;;;;;;;6.18;2.80;;;;;;;;;;5067087;28;20293;-62
2023/10/09 13:54:28;;;;;;;4.45;3.35;;;;;;;;;;5066956;28;20227;-63
2023/10/09 13:56:55;;;;;;;7.55;3.33;;;;;;;;;;5065979;28;20207;-62
2023/10/09 13:59:23;;;;;;;4.30;2.92;;;;;;;;;;5065905;28;20203;-62
2023/10/09 14:01:50;;;;;;;9.15;3.00;;;;;;;;;;5065613;28;20709;-62
2023/10/09 14:04:19;;;;;;;5.32;3.25;;;;;;;;;;5072502;28;20298;-62
2023/10/09 14:06:47;;;;;;;5.28;3.20;;;;;;;;;;5066958;28;20744;-62
2023/10/09 14:09:30;;;;;;;4.80;2.85;;;;;;;;;;5066562;28;20249;-62
2023/10/09 14:12:05;;;;;;;6.85;2.90;;;;;;;;;;5066479;28;20560;-62
2023/10/09 14:14:33;;;;;;;5.07;3.00;;;;;;;;;;5066328;28;20317;-62
2023/10/09 14:17:00;;;;;;;5.00;2.85;;;;;;;;;;5066418;28;20206;-62
2023/10/09 14:19:33;;;;;;;12.07;3.25;;;;;;;;;;5068548;28;20199;-64
2023/10/09 14:22:05;;;;;;;3.38;2.85;;;;;;;;;;5071378;28;20210;-64
2023/10/09 14:24:34;;;;;;;3.85;2.70;;;;;;;;;;5072072;28;20304;-64
2023/10/09 14:27:04;;;;;;;3.70;2.88;;;;;;;;;;5084630;28;20292;-64
2023/10/09 14:29:31;;;;;;;7.70;3.30;;;;;;;;;;5086052;28;20620;-64
2023/10/09 14:32:00;;;;;;;5.53;3.20;;;;;;;;;;5066465;28;20832;-65
2023/10/09 14:34:32;;;;;;;5.75;3.47;;;;;;;;;;5065776;28;20230;-65
2023/10/09 14:37:00;;;;;;;7.10;2.72;;;;;;;;;;5066737;28;20207;-65
2023/10/09 14:39:27;;;;;;;6.78;2.83;;;;;;;;;;5066660;28;20584;-65
2023/10/09 14:41:57;;;;;;;6.68;3.22;;;;;;;;;;5066623;28;20249;-65
2023/10/09 14:44:24;;;;;;;4.72;3.28;;;;;;;;;;5065858;28;20227;-65
2023/10/09 14:46:51;;;;;;;4.68;3.03;;;;;;;;;;5066208;28;20920;-64
2023/10/09 14:49:21;;;;;;;7.35;3.25;;;;;;;;;;5065903;28;20202;-66
2023/10/09 14:51:48;;;;;;;4.63;2.75;;;;;;;;;;5066645;28;20678;-65
2023/10/09 14:54:17;;;;;;;3.30;2.83;;;;;;;;;;5066701;28;20242;-66
2023/10/09 14:56:45;;;;;;;7.93;3.25;;;;;;;;;;5066957;28;20211;-64
2023/10/09 14:59:13;;;;;;;3.55;3.15;;;;;;;;;;5065829;28;20203;-64
2023/10/09 15:01:40;;;;;;;5.38;3.20;;;;;;;;;;5079062;28;20305;-64
2023/10/09 15:04:12;;;;;;;6.70;3.20;;;;;;;;;;5066428;28;20206;-66
2023/10/09 15:06:39;;;;;;;10.10;3.28;;;;;;;;;;5066203;28;20424;-63
2023/10/09 15:09:09;;;;;;;6.07;3.10;;;;;;;;;;5067224;28;20215;-66
2023/10/09 15:11:38;;;;;;;7.10;3.00;;;;;;;;;;5077447;28;20210;-65
2023/10/09 15:14:06;;;;;;;8.95;3.60;;;;;;;;;;5072528;28;20741;-65
2023/10/09 15:16:34;;;;;;;3.17;2.80;;;;;;;;;;5066321;28;20211;-66
2023/10/09 15:19:03;;;;;;;3.95;2.70;;;;;;;;;;5074557;28;20211;-65
2023/10/09 15:21:32;;;;;;;4.75;3.20;;;;;;;;;;5072959;28;20206;-65
2023/10/09 15:23:59;;;;;;;5.28;3.13;;;;;;;;;;5078985;28;20210;-67
2023/10/09 15:26:32;;;;;;;3.47;2.92;;;;;;;;;;5063071;28;20219;-64
2023/10/09 15:29:00;;;;;;;7.07;3.55;;;;;;;;;;5063823;28;20353;-64
2023/10/09 15:31:27;;;;;;;7.43;3.30;;;;;;;;;;5063474;28;20199;-64
2023/10/09 15:33:54;;;;;;;6.55;3.30;;;;;;;;;;5067265;28;20258;-64
2023/10/09 15:36:28;;;;;;;7.72;3.47;;;;;;;;;;5069312;28;20211;-71
2023/10/09 15:38:59;;;;;;;5.43;3.33;;;;;;;;;;5064389;28;20206;-63
2023/10/09 15:41:29;;;;;;;6.13;3.50;;;;;;;;;;5063553;28;20203;-62
2023/10/09 15:43:57;;;;;;;6.07;3.75;;;;;;;;;;5059580;28;20256;-63
2023/10/09 15:46:25;;;;;;;7.68;3.50;;;;;;;;;;5067245;28;20751;-71
2023/10/09 15:48:53;;;;;;;5.32;3.10;;;;;;;;;;5064593;28;20925;-63
2023/10/09 15:51:21;;;;;;;6.60;3.13;;;;;;;;;;5063774;28;20214;-64
2023/10/09 15:53:51;;;;;;;7.70;3.47;;;;;;;;;;5064422;28;20273;-63
2023/10/09 15:56:18;;;;;;;5.05;3.13;;;;;;;;;;5063546;28;20249;-63
2023/10/09 15:58:45;;;;;;;6.03;3.40;;;;;;;;;;5063509;28;20214;-63
2023/10/09 16:01:18;;;;;;;10.25;3.35;;;;;;;;;;5068826;28;20206;-63